EWG3C EDDN-EDDN

Flight info

Callsign EWG3C
Flight time 0h 28m
Altitude
Route
Aircraft A319

Departure

Time 2026-04-29 15:14
Airport Nuremberg Airport (EDDN)

Arrival

Time 2026-04-29 15:42
Airport Nuremberg Airport (EDDN)
Time Latitude Longitude Altitude Speed Heading
2026-04-29 15:02 49.49559 11.06940 1025 ft 0 kts
2026-04-29 15:03 49.49584 11.06945 1023 ft 12 kts
2026-04-29 15:03 49.49598 11.07050 1023 ft 15 kts 99°
2026-04-29 15:03 49.49586 11.07184 1025 ft 10 kts 86°
2026-04-29 15:03 49.49655 11.07226 1027 ft 14 kts
2026-04-29 15:04 49.49739 11.07161 1024 ft 18 kts 287°
2026-04-29 15:04 49.49762 11.06950 1021 ft 21 kts 278°
2026-04-29 15:04 49.49782 11.06726 1018 ft 18 kts 276°
2026-04-29 15:04 49.49788 11.06650 1017 ft 10 kts 276°
2026-04-29 15:05 49.49818 11.06540 1018 ft 12 kts 315°
2026-04-29 15:05 49.49874 11.06498 1018 ft 2 kts 340°
2026-04-29 15:05 49.49887 11.06493 1018 ft 0 kts 343°
2026-04-29 15:11 49.49962 11.06478 1017 ft 12 kts
2026-04-29 15:12 49.49994 11.06564 1019 ft 5 kts 98°
2026-04-29 15:12 49.49993 11.06567 1019 ft 0 kts 99°
2026-04-29 15:13 49.49980 11.06696 1020 ft 41 kts 99°
2026-04-29 15:13 49.49901 11.07495 1032 ft 107 kts 98°
2026-04-29 15:13 49.49760 11.08913 1198 ft 152 kts 98°
2026-04-29 15:13 49.49531 11.10495 1539 ft 146 kts 112°
2026-04-29 15:14 49.48786 11.11575 1873 ft 161 kts 150°
2026-04-29 15:14 49.47676 11.11404 1961 ft 162 kts 218°
2026-04-29 15:14 49.47364 11.09933 1752 ft 150 kts 283°
2026-04-29 15:14 49.47513 11.08411 1863 ft 150 kts 285°
2026-04-29 15:15 49.47693 11.06820 2038 ft 150 kts 285°
2026-04-29 15:15 49.47829 11.05254 2042 ft 145 kts 279°
2026-04-29 15:15 49.47969 11.03716 2009 ft 142 kts 284°
2026-04-29 15:15 49.48130 11.02250 1930 ft 138 kts 282°
2026-04-29 15:16 49.48309 11.00798 1806 ft 137 kts 281°
2026-04-29 15:16 49.48483 10.99371 1737 ft 131 kts 277°
2026-04-29 15:16 49.48142 10.98073 1658 ft 156 kts 216°
2026-04-29 15:16 49.47116 10.97677 1875 ft 149 kts 165°
2026-04-29 15:17 49.46442 10.98597 1914 ft 129 kts 98°
2026-04-29 15:17 49.46790 10.99726 1862 ft 127 kts 34°
2026-04-29 15:17 49.47658 10.99633 1759 ft 133 kts 339°
2026-04-29 15:17 49.48189 10.98402 1594 ft 149 kts 288°
2026-04-29 15:18 49.48311 10.96864 1634 ft 138 kts 277°
2026-04-29 15:18 49.48338 10.95342 1642 ft 143 kts 273°
2026-04-29 15:18 49.48339 10.93873 1599 ft 134 kts 271°
2026-04-29 15:18 49.48375 10.92430 1618 ft 146 kts 275°
2026-04-29 15:19 49.48966 10.91164 1619 ft 146 kts 344°
2026-04-29 15:19 49.49859 10.91363 1703 ft 126 kts 44°
2026-04-29 15:19 49.50450 10.92276 1689 ft 122 kts 60°
2026-04-29 15:19 49.50749 10.93495 1780 ft 117 kts 75°
2026-04-29 15:20 49.50924 10.94670 1818 ft 107 kts 72°
2026-04-29 15:20 49.50967 10.95950 1734 ft 131 kts 87°
2026-04-29 15:20 49.50888 10.97435 1687 ft 143 kts 96°
2026-04-29 15:20 49.50698 10.98982 1660 ft 149 kts 98°
2026-04-29 15:21 49.50569 11.00585 1579 ft 154 kts 98°
2026-04-29 15:21 49.50415 11.02248 1447 ft 155 kts 98°
2026-04-29 15:21 49.50259 11.03806 1324 ft 138 kts 94°
2026-04-29 15:21 49.50134 11.05163 1175 ft 120 kts 96°
2026-04-29 15:22 49.50014 11.06331 1030 ft 104 kts 98°
2026-04-29 15:22 49.49910 11.07343 1092 ft 107 kts 97°
2026-04-29 15:22 49.49782 11.08670 1439 ft 143 kts 95°
2026-04-29 15:22 49.49545 11.10303 1767 ft 160 kts 107°
2026-04-29 15:23 49.48677 11.10991 1621 ft 146 kts 186°
2026-04-29 15:23 49.47950 11.09941 1461 ft 162 kts 251°
2026-04-29 15:23 49.47970 11.08255 1589 ft 148 kts 277°
2026-04-29 15:23 49.48082 11.06712 1668 ft 143 kts 277°
2026-04-29 15:24 49.48197 11.05218 1750 ft 127 kts 284°
2026-04-29 15:24 49.48307 11.03840 1686 ft 143 kts 279°
2026-04-29 15:24 49.48415 11.02301 1667 ft 139 kts 279°
2026-04-29 15:24 49.48726 11.00906 1534 ft 147 kts 316°
2026-04-29 15:25 49.49656 11.00419 1479 ft 148 kts 22°
2026-04-29 15:25 49.50209 11.01657 1434 ft 137 kts 78°
2026-04-29 15:25 49.50261 11.02988 1331 ft 124 kts 86°
2026-04-29 15:25 49.50200 11.04380 1216 ft 129 kts 94°
2026-04-29 15:26 49.50068 11.05767 1073 ft 128 kts 96°
2026-04-29 15:26 49.49951 11.06942 1021 ft 102 kts 98°
2026-04-29 15:26 49.49830 11.08237 1364 ft 134 kts 95°
2026-04-29 15:26 49.49668 11.09892 1505 ft 184 kts 95°
2026-04-29 15:27 49.48942 11.11401 1588 ft 177 kts 149°
2026-04-29 15:27 49.47817 11.11159 1581 ft 168 kts 217°
2026-04-29 15:27 49.47448 11.09609 1649 ft 149 kts 277°
2026-04-29 15:27 49.47673 11.08066 1717 ft 154 kts 286°
2026-04-29 15:28 49.47864 11.06439 1696 ft 144 kts 286°
2026-04-29 15:28 49.47958 11.05457 1724 ft 142 kts 284°
2026-04-29 15:28 49.48176 11.03374 1738 ft 144 kts 280°
2026-04-29 15:28 49.48429 11.01924 1683 ft 142 kts 295°
2026-04-29 15:29 49.49201 11.01031 1589 ft 148 kts 357°
2026-04-29 15:29 49.50236 11.03021 1495 ft 122 kts 90°
2026-04-29 15:30 49.50046 11.05965 1087 ft 150 kts 96°
2026-04-29 15:30 49.49913 11.07325 1044 ft 109 kts 94°
2026-04-29 15:30 49.49778 11.08616 1233 ft 132 kts 94°
2026-04-29 15:30 49.49617 11.10158 1496 ft 164 kts 107°
2026-04-29 15:31 49.48685 11.11313 1757 ft 201 kts 165°
2026-04-29 15:31 49.47359 11.10517 1901 ft 215 kts 232°
2026-04-29 15:31 49.47304 11.08484 1697 ft 186 kts 297°
2026-04-29 15:31 49.47709 11.06641 1719 ft 175 kts 291°
2026-04-29 15:32 49.47979 11.04902 1812 ft 163 kts 288°
2026-04-29 15:32 49.48398 11.03321 1716 ft 158 kts 309°
2026-04-29 15:32 49.49377 11.02778 1628 ft 148 kts 13°
2026-04-29 15:32 49.50020 11.03699 1420 ft 123 kts 68°
2026-04-29 15:33 49.50109 11.05072 1222 ft 138 kts 88°
2026-04-29 15:33 49.49985 11.06514 1072 ft 124 kts 95°
2026-04-29 15:33 49.49878 11.07643 1076 ft 101 kts 95°
2026-04-29 15:33 49.49760 11.08868 1562 ft 125 kts 92°
2026-04-29 15:34 49.49645 11.10320 2077 ft 154 kts 94°
2026-04-29 15:34 49.49293 11.12027 2235 ft 195 kts 127°
2026-04-29 15:34 49.47980 11.12865 2315 ft 215 kts 176°
2026-04-29 15:34 49.46647 11.11936 2041 ft 219 kts 229°
2026-04-29 15:35 49.46201 11.09682 1867 ft 239 kts 276°
2026-04-29 15:35 49.46463 11.07079 1999 ft 256 kts 283°
2026-04-29 15:35 49.46783 11.04451 2015 ft 240 kts 283°
2026-04-29 15:35 49.47107 11.02032 2113 ft 223 kts 286°
2026-04-29 15:36 49.47434 10.99702 2145 ft 230 kts 285°
2026-04-29 15:36 49.47788 10.97210 2255 ft 245 kts 285°
2026-04-29 15:36 49.48129 10.94722 2355 ft 230 kts 284°
2026-04-29 15:36 49.48387 10.92377 2436 ft 214 kts 282°
2026-04-29 15:37 49.48646 10.90143 2503 ft 217 kts 284°
2026-04-29 15:37 49.48986 10.87806 2633 ft 231 kts 286°
2026-04-29 15:37 49.49362 10.85329 2803 ft 245 kts 286°
2026-04-29 15:37 49.49760 10.82717 2970 ft 258 kts 285°
2026-04-29 15:38 49.50264 10.80069 3212 ft 251 kts 292°
2026-04-29 15:38 49.51064 10.77788 3430 ft 250 kts 322°
2026-04-29 15:38 49.52772 10.76959 3504 ft 284 kts 12°
2026-04-29 15:38 49.53990 10.78770 3532 ft 272 kts 89°
2026-04-29 15:39 49.53230 10.81769 3497 ft 324 kts 119°
2026-04-29 15:39 49.52057 10.84642 3611 ft 298 kts 110°
2026-04-29 15:39 49.51709 10.87550 3457 ft 264 kts 91°
2026-04-29 15:39 49.51597 10.90267 3220 ft 242 kts 94°
2026-04-29 15:40 49.51358 10.92683 3078 ft 214 kts 97°
2026-04-29 15:40 49.51121 10.94839 2710 ft 196 kts 96°
2026-04-29 15:40 49.50920 10.96848 2260 ft 184 kts 95°
2026-04-29 15:40 49.50761 10.98684 2053 ft 160 kts 96°
2026-04-29 15:41 49.50598 11.00208 1882 ft 128 kts 94°
2026-04-29 15:41 49.50508 11.01496 1625 ft 127 kts 91°
2026-04-29 15:41 49.50360 11.02917 1377 ft 132 kts 94°
2026-04-29 15:41 49.50219 11.04280 1242 ft 125 kts 95°
2026-04-29 15:42 49.50094 11.05557 1089 ft 120 kts 95°
2026-04-29 15:42 49.49975 11.06720 1023 ft 94 kts 98°
2026-04-29 15:42 49.49899 11.07453 1031 ft 45 kts 99°
2026-04-29 15:42 49.49817 11.07656 1032 ft 20 kts 150°
2026-04-29 15:43 49.49776 11.07689 1032 ft 1 kts 153°